createdAt,value
2022-08-28T11:58:24.243Z,22.40
2022-08-28T11:58:37.007Z,22.38
2022-08-28T11:58:49.662Z,22.38
2022-08-28T11:59:02.451Z,22.38
2022-08-28T11:59:14.723Z,22.38
2022-08-28T11:59:35.143Z,22.38
2022-08-28T11:59:39.731Z,22.38
2022-08-28T11:59:52.480Z,22.38
2022-08-28T12:00:05.220Z,22.40
2022-08-28T12:00:17.807Z,22.38
2022-08-28T12:00:30.331Z,22.40
2022-08-28T12:00:42.873Z,22.40
2022-08-28T12:00:55.477Z,22.40
2022-08-28T12:01:08.007Z,22.41
2022-08-28T12:01:20.594Z,22.43
2022-08-28T12:01:33.110Z,22.41
2022-08-28T12:01:45.661Z,22.44
2022-08-28T12:01:58.256Z,22.43
2022-08-28T12:02:10.863Z,22.44
2022-08-28T12:02:23.460Z,22.44
2022-08-28T12:02:36.035Z,22.46
2022-08-28T12:02:48.695Z,22.46
2022-08-28T12:03:01.208Z,22.47
2022-08-28T12:03:14.011Z,22.46
2022-08-28T12:03:26.663Z,22.47
2022-08-28T12:03:39.256Z,22.51
2022-08-28T12:03:51.867Z,22.51
2022-08-28T12:04:08.049Z,22.51
2022-08-28T12:04:17.675Z,22.52
2022-08-28T12:04:30.277Z,22.52
2022-08-28T12:04:42.855Z,22.52
2022-08-28T12:04:55.352Z,22.52
2022-08-28T12:05:07.934Z,22.52
2022-08-28T12:05:20.518Z,22.55
2022-08-28T12:05:33.102Z,22.53
2022-08-28T12:05:45.650Z,22.56
2022-08-28T12:05:58.159Z,22.58
2022-08-28T12:06:10.701Z,22.59
2022-08-28T12:06:23.226Z,22.58
2022-08-28T12:06:35.774Z,22.61
2022-08-28T12:06:48.351Z,22.61
2022-08-28T12:07:00.850Z,22.61
2022-08-28T12:07:13.377Z,22.62
2022-08-28T12:07:25.915Z,22.63
2022-08-28T12:07:38.447Z,22.65
2022-08-28T12:07:50.984Z,22.68
2022-08-28T12:08:05.095Z,22.68
2022-08-28T12:08:14.616Z,22.70
2022-08-28T12:08:27.161Z,22.73
2022-08-28T12:08:39.702Z,22.74
2022-08-28T12:08:52.241Z,22.76
2022-08-28T12:09:04.778Z,22.77
2022-08-28T12:09:17.341Z,22.78
2022-08-28T12:09:29.848Z,22.78
2022-08-28T12:09:42.390Z,22.80
2022-08-28T12:09:54.928Z,22.80
2022-08-28T12:10:07.651Z,22.83
2022-08-28T12:10:20.269Z,22.83
2022-08-28T12:10:32.925Z,22.83
2022-08-28T12:10:45.442Z,22.86
2022-08-28T12:10:57.980Z,22.86
2022-08-28T12:11:10.512Z,22.88
2022-08-28T12:11:23.042Z,22.89
2022-08-28T12:11:35.584Z,22.91
2022-08-28T12:11:48.178Z,22.91
2022-08-28T12:12:00.877Z,22.92
2022-08-28T12:12:13.413Z,22.92
2022-08-28T12:12:25.952Z,22.93
2022-08-28T12:12:38.483Z,22.93
2022-08-28T12:12:51.089Z,22.93
2022-08-28T12:13:03.654Z,22.92
2022-08-28T12:13:16.175Z,22.91
2022-08-28T12:13:28.718Z,22.86
2022-08-28T12:13:41.258Z,22.89
2022-08-28T12:13:53.810Z,22.86
2022-08-28T12:14:07.257Z,22.84
2022-08-28T12:14:19.825Z,22.83
2022-08-28T12:14:32.345Z,22.81
2022-08-28T12:14:44.885Z,22.80
2022-08-28T12:14:57.459Z,22.78
2022-08-28T12:15:10.050Z,22.78
2022-08-28T12:15:22.590Z,22.77
2022-08-28T12:15:35.247Z,22.78
2022-08-28T12:15:47.859Z,22.77
2022-08-28T12:16:00.429Z,22.78
2022-08-28T12:16:12.986Z,22.78
2022-08-28T12:16:25.368Z,22.78
2022-08-28T12:16:37.909Z,22.77
2022-08-28T12:16:50.468Z,22.77
2022-08-28T12:17:02.998Z,22.77
2022-08-28T12:17:15.527Z,22.77
2022-08-28T12:17:31.217Z,22.77
2022-08-28T12:17:40.887Z,22.74
2022-08-28T12:17:53.437Z,22.71
2022-08-28T12:18:05.988Z,22.71
2022-08-28T12:18:18.666Z,22.70
2022-08-28T12:18:31.147Z,22.68
2022-08-28T12:18:43.707Z,22.67
2022-08-28T12:18:56.327Z,22.65
2022-08-28T12:19:08.857Z,22.63
2022-08-28T12:19:21.414Z,22.62
2022-08-28T12:19:33.946Z,22.62
2022-08-28T12:19:52.557Z,22.62
2022-08-28T12:19:58.761Z,22.58
2022-08-28T12:20:11.289Z,22.55
2022-08-28T12:20:23.906Z,22.52
2022-08-28T12:20:36.401Z,22.47
2022-08-28T12:20:48.960Z,22.41
2022-08-28T12:21:01.552Z,22.40
2022-08-28T12:21:14.071Z,22.37
2022-08-28T12:21:26.602Z,22.34
2022-08-28T12:21:39.147Z,22.34
2022-08-28T12:21:51.682Z,22.33
2022-08-28T12:22:04.226Z,22.33
2022-08-28T12:22:16.787Z,22.34
2022-08-28T12:22:29.305Z,22.34
2022-08-28T12:22:41.837Z,22.36
2022-08-28T12:22:54.392Z,22.38
2022-08-28T12:23:07.000Z,22.44
2022-08-28T12:23:19.501Z,22.55
2022-08-28T12:23:32.064Z,22.67
2022-08-28T12:23:44.599Z,22.73
2022-08-28T12:23:59.129Z,22.80
2022-08-28T12:24:09.863Z,22.84
2022-08-28T12:24:20.973Z,22.89
2022-08-28T12:24:33.872Z,22.93
2022-08-28T12:24:45.731Z,22.98
2022-08-28T12:24:58.325Z,23.01
2022-08-28T12:25:10.918Z,23.02
2022-08-28T12:25:23.459Z,23.07
2022-08-28T12:25:36.099Z,23.08
2022-08-28T12:25:48.588Z,23.08
2022-08-28T12:26:01.131Z,23.11
2022-08-28T12:26:13.732Z,23.13
2022-08-28T12:26:26.408Z,23.16
2022-08-28T12:26:38.899Z,23.18
2022-08-28T12:26:51.443Z,23.20
2022-08-28T12:27:03.975Z,23.20
2022-08-28T12:27:16.508Z,23.21
2022-08-28T12:27:29.059Z,23.23
2022-08-28T12:27:41.759Z,23.25
2022-08-28T12:27:54.250Z,23.25
2022-08-28T12:28:06.805Z,23.26
2022-08-28T12:28:19.061Z,23.26
2022-08-28T12:28:31.620Z,23.28
2022-08-28T12:28:44.138Z,23.26
2022-08-28T12:28:56.688Z,23.26
2022-08-28T12:29:09.225Z,23.26
2022-08-28T12:29:21.769Z,23.26
2022-08-28T12:29:34.092Z,23.25
2022-08-28T12:29:46.592Z,23.21
2022-08-28T12:29:59.135Z,23.20
2022-08-28T12:30:11.670Z,23.21
2022-08-28T12:30:24.214Z,23.20
2022-08-28T12:30:36.800Z,23.18
2022-08-28T12:30:49.379Z,23.20
2022-08-28T12:31:01.975Z,23.20
2022-08-28T12:31:14.517Z,23.20
2022-08-28T12:31:27.029Z,23.21
2022-08-28T12:31:39.561Z,23.23
2022-08-28T12:31:52.105Z,23.25
2022-08-28T12:32:04.632Z,23.25
2022-08-28T12:32:17.162Z,23.29
2022-08-28T12:32:29.703Z,23.33
2022-08-28T12:32:42.295Z,23.32
2022-08-28T12:32:54.844Z,23.34
2022-08-28T12:33:07.377Z,23.34
2022-08-28T12:33:19.993Z,23.34
2022-08-28T12:33:32.487Z,23.39
2022-08-28T12:33:45.028Z,23.39
2022-08-28T12:33:57.564Z,23.40
2022-08-28T12:34:10.121Z,23.40
2022-08-28T12:34:22.671Z,23.42
2022-08-28T12:34:35.215Z,23.40
2022-08-28T12:34:47.743Z,23.44
2022-08-28T12:35:00.416Z,23.45
2022-08-28T12:35:12.909Z,23.45
2022-08-28T12:35:25.447Z,23.47
2022-08-28T12:35:37.986Z,23.47
2022-08-28T12:35:50.524Z,23.48
2022-08-28T12:36:03.066Z,23.48
2022-08-28T12:36:15.728Z,23.48
2022-08-28T12:36:28.243Z,23.47
2022-08-28T12:36:40.768Z,23.47
2022-08-28T12:36:53.315Z,23.45
2022-08-28T12:37:05.854Z,23.42
2022-08-28T12:37:18.391Z,23.42
2022-08-28T12:37:30.930Z,23.39
2022-08-28T12:37:52.436Z,23.34
2022-08-28T12:37:55.547Z,23.34
2022-08-28T12:38:08.055Z,23.32
2022-08-28T12:38:20.591Z,23.29
2022-08-28T12:38:33.137Z,23.32
2022-08-28T12:38:45.681Z,23.28
2022-08-28T12:38:58.223Z,23.26
2022-08-28T12:39:10.904Z,23.25
2022-08-28T12:39:23.405Z,23.25
2022-08-28T12:39:35.936Z,23.26
2022-08-28T12:39:48.488Z,23.28
2022-08-28T12:40:01.162Z,23.26
2022-08-28T12:40:13.750Z,23.26
2022-08-28T12:40:26.453Z,23.18
2022-08-28T12:40:39.154Z,23.17
2022-08-28T12:40:51.659Z,23.16
2022-08-28T12:41:04.198Z,23.13
2022-08-28T12:41:16.823Z,23.11
2022-08-28T12:41:30.392Z,23.10
2022-08-28T12:41:42.974Z,23.08
2022-08-28T12:41:55.520Z,23.07
2022-08-28T12:42:08.090Z,23.04
2022-08-28T12:42:20.615Z,23.06
2022-08-28T12:42:33.143Z,23.04
2022-08-28T12:42:45.691Z,23.07
2022-08-28T12:42:58.238Z,23.04
2022-08-28T12:43:10.764Z,23.02
2022-08-28T12:43:24.784Z,23.02
2022-08-28T12:43:38.511Z,23.01
2022-08-28T12:43:49.619Z,22.99
2022-08-28T12:44:02.145Z,23.01
2022-08-28T12:44:14.760Z,23.01
2022-08-28T12:44:27.274Z,23.01
2022-08-28T12:44:39.810Z,23.01
2022-08-28T12:44:52.389Z,23.01
2022-08-28T12:45:04.905Z,22.99
2022-08-28T12:45:17.457Z,22.99
2022-08-28T12:45:30.006Z,22.96
2022-08-28T12:45:42.628Z,22.96
2022-08-28T12:45:55.258Z,22.96
2022-08-28T12:46:07.834Z,22.96
2022-08-28T12:46:20.235Z,22.96
2022-08-28T12:46:32.919Z,22.95
2022-08-28T12:46:45.432Z,22.93
2022-08-28T12:46:58.029Z,22.91
2022-08-28T12:47:10.539Z,22.86
2022-08-28T12:47:23.078Z,22.84
2022-08-28T12:47:35.840Z,22.81
2022-08-28T12:47:48.306Z,22.80
2022-08-28T12:48:00.844Z,22.80
2022-08-28T12:48:13.384Z,22.80
2022-08-28T12:48:25.975Z,22.80
2022-08-28T12:48:38.509Z,22.81
2022-08-28T12:48:51.057Z,22.81
2022-08-28T12:49:03.598Z,22.83
2022-08-28T12:49:16.204Z,22.81
2022-08-28T12:49:28.715Z,22.81
2022-08-28T12:49:41.299Z,22.83
2022-08-28T12:49:53.806Z,22.83
2022-08-28T12:50:06.346Z,22.83
2022-08-28T12:50:18.885Z,22.84
2022-08-28T12:50:31.422Z,22.84
2022-08-28T12:50:43.955Z,22.86
2022-08-28T12:50:56.505Z,22.86
2022-08-28T12:51:08.107Z,22.88
2022-08-28T12:51:20.618Z,22.89
2022-08-28T12:51:33.156Z,22.92
2022-08-28T12:51:45.768Z,22.92
2022-08-28T12:51:58.352Z,22.95
2022-08-28T12:52:10.848Z,22.95
2022-08-28T12:52:23.129Z,22.96
2022-08-28T12:52:35.934Z,22.95
2022-08-28T12:52:48.492Z,22.93
2022-08-28T12:53:01.130Z,22.92
2022-08-28T12:53:14.020Z,22.92
2022-08-28T12:53:26.616Z,22.92
2022-08-28T12:53:38.113Z,22.93
2022-08-28T12:53:50.680Z,22.93
2022-08-28T12:54:03.399Z,22.95
2022-08-28T12:54:16.213Z,22.93
2022-08-28T12:54:28.981Z,22.96
2022-08-28T12:54:41.797Z,22.96
2022-08-28T12:54:54.588Z,22.98
2022-08-28T12:55:07.339Z,23.01
2022-08-28T12:55:24.221Z,23.01
2022-08-28T12:55:34.053Z,23.02
2022-08-28T12:55:46.850Z,23.02
2022-08-28T12:55:59.630Z,23.04
2022-08-28T12:56:12.341Z,23.04
2022-08-28T12:56:24.979Z,23.04
2022-08-28T12:56:37.709Z,22.98
2022-08-28T12:56:50.465Z,22.96
2022-08-28T12:57:03.233Z,22.93
2022-08-28T12:57:15.923Z,22.83
2022-08-28T12:57:28.702Z,22.74
2022-08-28T12:57:41.574Z,22.68
2022-08-28T12:57:54.254Z,22.63
2022-08-28T12:58:06.952Z,22.59
2022-08-28T12:58:19.387Z,22.58
2022-08-28T12:58:32.061Z,22.55
2022-08-28T12:58:44.862Z,22.55
2022-08-28T12:58:57.578Z,22.55
2022-08-28T12:59:10.263Z,22.55
2022-08-28T12:59:23.020Z,22.56
2022-08-28T12:59:36.937Z,22.58
2022-08-28T12:59:49.610Z,22.61
2022-08-28T13:00:02.372Z,22.62
2022-08-28T13:00:15.059Z,22.67
2022-08-28T13:00:27.698Z,22.68
2022-08-28T13:00:40.369Z,22.71
2022-08-28T13:00:53.084Z,22.74
2022-08-28T13:01:05.773Z,22.77
2022-08-28T13:01:18.486Z,22.80
2022-08-28T13:01:31.413Z,22.81
2022-08-28T13:01:44.364Z,22.84
2022-08-28T13:01:57.199Z,22.88
2022-08-28T13:02:09.974Z,22.89
2022-08-28T13:02:22.917Z,22.92
2022-08-28T13:02:35.778Z,22.92
2022-08-28T13:02:50.743Z,22.95
2022-08-28T13:03:01.389Z,22.98
2022-08-28T13:03:14.322Z,23.01
2022-08-28T13:03:27.199Z,23.07
2022-08-28T13:03:39.974Z,23.11
2022-08-28T13:03:52.708Z,23.14
2022-08-28T13:04:05.446Z,23.18
2022-08-28T13:04:17.990Z,23.23
2022-08-28T13:04:30.568Z,23.25
2022-08-28T13:04:43.959Z,23.28
2022-08-28T13:04:56.610Z,23.29
2022-08-28T13:05:09.281Z,23.32
2022-08-28T13:05:21.856Z,23.34
2022-08-28T13:05:34.403Z,23.36
2022-08-28T13:05:46.997Z,23.37
2022-08-28T13:05:59.653Z,23.39
2022-08-28T13:06:12.322Z,23.42
2022-08-28T13:06:24.947Z,23.42
2022-08-28T13:06:37.639Z,23.44
2022-08-28T13:06:50.377Z,23.44
2022-08-28T13:07:03.053Z,23.44
2022-08-28T13:07:15.830Z,23.44
2022-08-28T13:07:28.515Z,23.44
2022-08-28T13:11:42.975Z,23.25
2022-08-28T13:11:55.512Z,23.26
2022-08-28T13:12:07.414Z,23.25
2022-08-28T13:12:19.951Z,23.25
2022-08-28T13:12:51.679Z,23.26
2022-08-28T13:12:56.003Z,23.26
2022-08-28T13:13:00.785Z,23.26
2022-08-28T13:13:09.309Z,23.26
2022-08-28T13:13:21.854Z,23.26
2022-08-28T13:13:34.379Z,23.25
2022-08-28T13:13:46.966Z,23.25
2022-08-28T13:13:59.466Z,23.23
2022-08-28T13:14:11.991Z,23.25
2022-08-28T13:14:24.609Z,23.25
2022-08-28T13:14:37.078Z,23.23
2022-08-28T13:14:49.615Z,23.25
2022-08-28T13:15:02.156Z,23.23
2022-08-28T13:15:14.755Z,23.25
2022-08-28T13:15:27.088Z,23.26
2022-08-28T13:15:39.570Z,23.26
2022-08-28T13:15:52.172Z,23.28
2022-08-28T13:16:04.710Z,23.29
2022-08-28T13:16:17.310Z,23.29
2022-08-28T13:16:29.886Z,23.29
2022-08-28T13:16:42.412Z,23.29
2022-08-28T13:16:54.917Z,23.29
2022-08-28T13:17:07.472Z,23.32
2022-08-28T13:17:19.982Z,23.29
2022-08-28T13:17:32.585Z,23.32
2022-08-28T13:17:45.136Z,23.32
2022-08-28T13:17:57.670Z,23.33
2022-08-28T13:18:10.209Z,23.34
2022-08-28T13:18:22.795Z,23.34
2022-08-28T13:18:35.306Z,23.36
2022-08-28T13:18:47.839Z,23.37
2022-08-28T13:19:00.377Z,23.37
2022-08-28T13:19:12.922Z,23.39
2022-08-28T13:19:25.461Z,23.39
2022-08-28T13:19:38.056Z,23.39
2022-08-28T13:19:50.584Z,23.36
2022-08-28T13:20:03.118Z,23.36
2022-08-28T13:20:15.668Z,23.36
2022-08-28T13:20:28.218Z,23.33
2022-08-28T13:20:40.757Z,23.33
2022-08-28T13:20:53.453Z,23.32
2022-08-28T13:21:05.934Z,23.32
2022-08-28T13:21:33.213Z,23.29
2022-08-28T13:21:33.565Z,23.28
2022-08-28T13:21:40.898Z,23.28
2022-08-28T13:21:53.454Z,23.25
2022-08-28T13:22:05.980Z,23.25
2022-08-28T13:22:18.521Z,23.25
2022-08-28T13:22:31.063Z,23.25
2022-08-28T13:22:45.005Z,23.25
2022-08-28T13:22:55.882Z,23.25
2022-08-28T13:23:08.428Z,23.26
2022-08-28T13:23:20.962Z,23.26
2022-08-28T13:23:33.504Z,23.26
2022-08-28T13:23:46.094Z,23.26
2022-08-28T13:23:58.595Z,23.29
2022-08-28T13:24:12.676Z,23.28
2022-08-28T13:24:25.211Z,23.29
2022-08-28T13:24:37.742Z,23.29
2022-08-28T13:24:50.291Z,23.32
2022-08-28T13:25:02.846Z,23.33
2022-08-28T13:25:15.571Z,23.34
2022-08-28T13:25:29.227Z,23.36
2022-08-28T13:25:41.744Z,23.36
2022-08-28T13:25:54.280Z,23.37
2022-08-28T13:26:06.810Z,23.37
2022-08-28T13:26:19.350Z,23.37
2022-08-28T13:26:31.892Z,23.37
2022-08-28T13:26:44.451Z,23.34
2022-08-28T13:26:56.962Z,23.34
2022-08-28T13:27:09.525Z,23.33
2022-08-28T13:27:22.038Z,23.33
2022-08-28T13:27:34.585Z,23.29
2022-08-28T13:27:47.264Z,23.28
2022-08-28T13:27:59.815Z,23.25
2022-08-28T13:28:12.397Z,23.23
2022-08-28T13:28:24.920Z,23.18
2022-08-28T13:28:37.524Z,23.16
2022-08-28T13:28:50.062Z,23.16
2022-08-28T13:29:02.193Z,23.16
2022-08-28T13:29:14.732Z,23.16
2022-08-28T13:29:27.311Z,23.14
2022-08-28T13:29:39.792Z,23.14
2022-08-28T13:29:52.863Z,23.16
2022-08-28T13:30:06.884Z,23.16
2022-08-28T13:30:19.426Z,23.16
2022-08-28T13:30:32.033Z,23.16
2022-08-28T13:30:44.567Z,23.16
2022-08-28T13:30:57.166Z,23.16
2022-08-28T13:31:09.717Z,23.17
2022-08-28T13:31:20.944Z,23.16
2022-08-28T13:31:33.492Z,23.16
2022-08-28T13:31:46.028Z,23.16
2022-08-28T13:31:58.615Z,23.17
2022-08-28T13:32:11.213Z,23.16
2022-08-28T13:32:23.782Z,23.17
2022-08-28T13:32:36.313Z,23.18
2022-08-28T13:32:48.853Z,23.18
2022-08-28T13:33:01.392Z,23.18
2022-08-28T13:33:14.058Z,23.18
2022-08-28T13:33:26.760Z,23.21
2022-08-28T13:33:39.235Z,23.20
2022-08-28T13:33:51.772Z,23.23
2022-08-28T13:34:04.308Z,23.25
2022-08-28T13:34:16.851Z,23.26
2022-08-28T13:34:29.398Z,23.28
2022-08-28T13:34:47.877Z,23.29
2022-08-28T13:34:54.238Z,23.33
2022-08-28T13:35:06.784Z,23.33
2022-08-28T13:35:19.316Z,23.34
2022-08-28T13:35:31.855Z,23.36
2022-08-28T13:35:44.416Z,23.37
2022-08-28T13:35:57.050Z,23.37
2022-08-28T13:36:09.666Z,23.39
2022-08-28T13:36:22.331Z,23.39
2022-08-28T13:36:34.873Z,23.40
2022-08-28T13:36:47.407Z,23.40
2022-08-28T13:36:59.946Z,23.40
2022-08-28T13:37:14.939Z,23.42
2022-08-28T13:37:24.801Z,23.42
2022-08-28T13:37:37.342Z,23.44
2022-08-28T13:37:49.855Z,23.44
2022-08-28T13:38:02.392Z,23.42
2022-08-28T13:38:14.931Z,23.44
2022-08-28T13:38:27.464Z,23.42
2022-08-28T13:38:40.007Z,23.42
2022-08-28T13:38:52.614Z,23.39
2022-08-28T13:39:05.137Z,23.39
2022-08-28T13:39:17.678Z,23.37
2022-08-28T13:39:30.212Z,23.36
2022-08-28T13:39:42.741Z,23.33
2022-08-28T13:39:55.340Z,23.33
2022-08-28T13:40:13.636Z,23.32
2022-08-28T13:40:53.513Z,23.28
2022-08-28T13:40:58.742Z,23.26
2022-08-28T13:41:00.081Z,23.28
2022-08-28T13:41:00.197Z,23.28
2022-08-28T13:41:08.733Z,23.26
2022-08-28T13:41:21.278Z,23.26
2022-08-28T13:41:33.866Z,23.26
2022-08-28T13:41:46.366Z,23.25
2022-08-28T13:41:58.936Z,23.23
2022-08-28T13:42:12.193Z,23.21
2022-08-28T13:42:24.731Z,23.21
2022-08-28T13:42:37.294Z,23.20
2022-08-28T13:42:49.848Z,23.20
2022-08-28T13:43:02.390Z,23.18
2022-08-28T13:43:15.194Z,23.20
2022-08-28T13:43:27.972Z,23.17
2022-08-28T13:43:40.500Z,23.18
2022-08-28T13:43:53.034Z,23.18
2022-08-28T13:44:05.575Z,23.18
2022-08-28T13:44:18.126Z,23.17
2022-08-28T13:44:30.660Z,23.18
2022-08-28T13:44:43.290Z,23.20
2022-08-28T13:44:55.809Z,23.21
2022-08-28T13:45:08.337Z,23.23
2022-08-28T13:45:20.883Z,23.26
2022-08-28T13:45:40.101Z,23.25
2022-08-28T13:45:45.799Z,23.26
2022-08-28T13:45:58.309Z,23.28
2022-08-28T13:46:10.982Z,23.28
2022-08-28T13:46:23.559Z,23.28
2022-08-28T13:46:36.166Z,23.29
2022-08-28T13:46:48.653Z,23.28
2022-08-28T13:47:01.195Z,23.32
2022-08-28T13:47:13.746Z,23.32
2022-08-28T13:47:26.343Z,23.33
2022-08-28T13:47:38.827Z,23.33
2022-08-28T13:47:51.369Z,23.34
2022-08-28T13:48:03.943Z,23.34
2022-08-28T13:48:15.278Z,23.34
2022-08-28T13:48:27.814Z,23.37
2022-08-28T13:48:40.358Z,23.36
2022-08-28T13:48:52.940Z,23.37
2022-08-28T13:49:05.487Z,23.36
2022-08-28T13:49:17.989Z,23.34
2022-08-28T13:49:30.516Z,23.33
2022-08-28T13:49:43.055Z,23.32
2022-08-28T13:49:55.587Z,23.33
2022-08-28T13:50:08.182Z,23.34
2022-08-28T13:50:20.730Z,23.33
2022-08-28T13:50:33.245Z,23.32
2022-08-28T13:50:46.612Z,23.34
2022-08-28T13:50:59.479Z,23.33
2022-08-28T13:51:14.211Z,23.33
2022-08-28T13:51:24.257Z,23.34
2022-08-28T13:51:39.577Z,23.32
2022-08-28T13:51:49.284Z,23.32
2022-08-28T13:52:00.345Z,23.33
2022-08-28T13:52:13.842Z,23.32
2022-08-28T13:52:26.386Z,23.34
2022-08-28T13:52:39.819Z,23.36
2022-08-28T13:52:53.656Z,23.37
2022-08-28T13:53:06.348Z,23.39
2022-08-28T13:53:19.181Z,23.39
2022-08-28T13:53:32.244Z,23.37
2022-08-28T13:53:44.758Z,23.37
2022-08-28T13:53:57.399Z,23.37
2022-08-28T13:54:10.046Z,23.37
2022-08-28T13:54:21.880Z,23.37
2022-08-28T13:54:34.646Z,23.36
2022-08-28T13:54:47.928Z,23.37
2022-08-28T13:55:00.460Z,23.37
2022-08-28T13:55:13.005Z,23.39
2022-08-28T13:55:25.540Z,23.40
2022-08-28T13:55:39.211Z,23.40
2022-08-28T13:55:51.812Z,23.40
2022-08-28T13:56:04.378Z,23.40
2022-08-28T13:56:16.878Z,23.42
2022-08-28T13:56:29.407Z,23.39
2022-08-28T13:56:41.964Z,23.42
2022-08-28T13:56:54.479Z,23.40
2022-08-28T13:57:07.010Z,23.42
2022-08-28T13:57:19.549Z,23.40
2022-08-28T13:57:32.085Z,23.42
2022-08-28T13:57:45.733Z,23.44
2022-08-28T13:57:58.210Z,23.45
2022-08-28T13:58:10.752Z,23.47
2022-08-28T13:58:23.295Z,23.47
2022-08-28T13:58:35.835Z,23.47
2022-08-28T13:58:56.786Z,23.51
2022-08-28T13:59:00.636Z,23.49
2022-08-28T13:59:13.178Z,23.51
2022-08-28T13:59:25.741Z,23.54
2022-08-28T13:59:38.263Z,23.58
2022-08-28T13:59:55.381Z,23.59
2022-08-28T14:00:02.058Z,23.59
2022-08-28T14:00:14.536Z,23.66
2022-08-28T14:00:27.073Z,23.73
2022-08-28T14:00:39.735Z,23.74
2022-08-28T14:00:52.285Z,23.82
2022-08-28T14:01:04.819Z,23.88
2022-08-28T14:01:17.464Z,23.89
2022-08-28T14:01:30.655Z,23.92
2022-08-28T14:01:42.251Z,23.94
2022-08-28T14:01:55.074Z,23.94
2022-08-28T14:02:07.681Z,23.95
2022-08-28T14:02:20.244Z,23.95
2022-08-28T14:02:32.911Z,23.94
2022-08-28T14:02:45.509Z,23.95
2022-08-28T14:02:58.036Z,23.94
2022-08-28T14:03:10.542Z,23.95
2022-08-28T14:03:23.076Z,23.92
2022-08-28T14:03:35.626Z,23.91
2022-08-28T14:03:48.159Z,23.89
2022-08-28T14:04:00.692Z,23.88
2022-08-28T14:04:13.276Z,23.86
2022-08-28T14:04:25.785Z,23.86
2022-08-28T14:04:38.314Z,23.88
2022-08-28T14:04:50.856Z,23.85
2022-08-28T14:05:03.397Z,23.85
2022-08-28T14:05:15.938Z,23.84
2022-08-28T14:05:28.516Z,23.81
2022-08-28T14:05:41.014Z,23.82
2022-08-28T14:05:53.552Z,23.81
2022-08-28T14:06:06.088Z,23.79
2022-08-28T14:06:18.623Z,23.81
2022-08-28T14:06:31.942Z,23.82
2022-08-28T14:06:44.546Z,23.84
2022-08-28T14:06:57.044Z,23.85
2022-08-28T14:07:09.582Z,23.85
2022-08-28T14:07:22.131Z,23.86
2022-08-28T14:07:34.673Z,23.86
2022-08-28T14:07:47.210Z,23.88
2022-08-28T14:07:59.835Z,23.88
2022-08-28T14:08:12.369Z,23.89
2022-08-28T14:08:24.903Z,23.89
2022-08-28T14:08:37.447Z,23.89
2022-08-28T14:08:49.979Z,23.91
2022-08-28T14:09:02.531Z,23.89
2022-08-28T14:09:15.060Z,23.91
2022-08-28T14:09:27.698Z,23.92
2022-08-28T14:09:40.655Z,23.91
2022-08-28T14:09:56.391Z,23.91
2022-08-28T14:10:06.049Z,23.91
2022-08-28T14:10:18.609Z,23.91
2022-08-28T14:10:31.197Z,23.91
2022-08-28T14:10:43.733Z,23.91
2022-08-28T14:10:56.270Z,23.91
2022-08-28T14:11:12.721Z,23.92
2022-08-28T14:11:22.411Z,23.91
2022-08-28T14:11:34.934Z,23.91
2022-08-28T14:11:47.474Z,23.89
2022-08-28T14:12:00.039Z,23.89
2022-08-28T14:12:12.552Z,23.88
2022-08-28T14:12:30.705Z,23.89
2022-08-28T14:12:37.368Z,23.89
2022-08-28T14:12:49.897Z,23.89
2022-08-28T14:13:02.437Z,23.89
2022-08-28T14:13:15.225Z,23.89
2022-08-28T14:13:27.756Z,23.89
2022-08-28T14:13:40.282Z,23.86
2022-08-28T14:13:55.361Z,23.88
2022-08-28T14:14:05.299Z,23.88
2022-08-28T14:14:17.835Z,23.86
2022-08-28T14:14:30.374Z,23.86
2022-08-28T14:14:42.924Z,23.86
2022-08-28T14:14:55.451Z,23.85
2022-08-28T14:15:08.031Z,23.85
2022-08-28T14:15:20.564Z,23.85
2022-08-28T14:15:33.091Z,23.84
2022-08-28T14:15:45.623Z,23.84
2022-08-28T14:15:58.178Z,23.88
2022-08-28T14:16:10.745Z,23.94
2022-08-28T14:16:24.498Z,23.95
2022-08-28T14:16:39.766Z,23.99
2022-08-28T14:16:49.463Z,24.01
2022-08-28T14:17:01.990Z,24.00
2022-08-28T14:17:14.495Z,23.96
2022-08-28T14:17:27.037Z,23.95
2022-08-28T14:17:39.610Z,23.91
2022-08-28T14:17:52.105Z,23.91
2022-08-28T14:18:04.655Z,23.88
2022-08-28T14:18:17.198Z,23.88
2022-08-28T14:18:29.743Z,23.85
2022-08-28T14:18:42.274Z,23.85
2022-08-28T14:18:54.804Z,23.82
2022-08-28T14:19:07.431Z,23.82
2022-08-28T14:19:19.923Z,23.82
2022-08-28T14:19:32.457Z,23.82
2022-08-28T14:19:45.017Z,23.82
2022-08-28T14:19:57.557Z,23.79
2022-08-28T14:20:10.094Z,23.81
2022-08-28T14:20:22.681Z,23.79
2022-08-28T14:20:35.215Z,23.79
2022-08-28T14:20:47.825Z,23.76
2022-08-28T14:20:58.901Z,23.77
2022-08-28T14:21:11.441Z,23.76
2022-08-28T14:21:23.973Z,23.73
2022-08-28T14:21:36.520Z,23.73
2022-08-28T14:21:49.065Z,23.73
2022-08-28T14:22:01.638Z,23.71
2022-08-28T14:22:14.161Z,23.71
2022-08-28T14:22:26.694Z,23.69
2022-08-28T14:22:39.225Z,23.70
2022-08-28T14:22:51.778Z,23.70
2022-08-28T14:23:04.309Z,23.69
2022-08-28T14:23:16.851Z,23.70
2022-08-28T14:23:29.450Z,23.70
2022-08-28T14:23:42.011Z,23.71
2022-08-28T14:23:54.553Z,23.71
2022-08-28T14:24:07.091Z,23.71
2022-08-28T14:24:19.626Z,23.73
2022-08-28T14:24:32.165Z,23.70
2022-08-28T14:24:44.704Z,23.70
2022-08-28T14:24:57.289Z,23.71
2022-08-28T14:25:10.752Z,23.71
2022-08-28T14:25:23.309Z,23.73
2022-08-28T14:25:39.044Z,23.71
2022-08-28T14:25:48.741Z,23.73
2022-08-28T14:26:01.258Z,23.70
2022-08-28T14:26:13.817Z,23.66
2022-08-28T14:26:26.339Z,23.63
2022-08-28T14:26:38.880Z,23.62
2022-08-28T14:26:51.465Z,23.59
2022-08-28T14:27:03.978Z,23.59
2022-08-28T14:27:16.512Z,23.58
2022-08-28T14:27:29.055Z,23.59
2022-08-28T14:27:41.588Z,23.59
2022-08-28T14:27:54.121Z,23.58
2022-08-28T14:28:06.732Z,23.56
2022-08-28T14:28:19.223Z,23.55
2022-08-28T14:28:31.771Z,23.55
2022-08-28T14:28:44.318Z,23.54
2022-08-28T14:28:56.853Z,23.52
2022-08-28T14:29:09.395Z,23.54
2022-08-28T14:29:21.939Z,23.52
2022-08-28T14:29:34.566Z,23.51
2022-08-28T14:29:47.145Z,23.49
2022-08-28T14:29:59.672Z,23.51
2022-08-28T14:30:12.219Z,23.49
2022-08-28T14:30:24.752Z,23.49
2022-08-28T14:30:37.325Z,23.49
2022-08-28T14:30:49.832Z,23.51
2022-08-28T14:31:02.424Z,23.49
2022-08-28T14:31:15.091Z,23.51
2022-08-28T14:31:27.663Z,23.51
2022-08-28T14:31:40.274Z,23.51
2022-08-28T14:31:52.821Z,23.51
2022-08-28T14:32:05.594Z,23.51
2022-08-28T14:32:18.226Z,23.51
2022-08-28T14:32:30.737Z,23.49
2022-08-28T14:32:43.270Z,23.52
2022-08-28T14:32:55.806Z,23.52
2022-08-28T14:33:08.360Z,23.52
2022-08-28T14:33:21.081Z,23.55
2022-08-28T14:33:36.873Z,23.52
2022-08-28T14:33:46.446Z,23.54
2022-08-28T14:33:59.392Z,23.54
2022-08-28T14:34:11.997Z,23.56
2022-08-28T14:34:24.508Z,23.55
2022-08-28T14:34:37.058Z,23.55
2022-08-28T14:34:49.630Z,23.56
2022-08-28T14:35:02.134Z,23.56
2022-08-28T14:35:14.671Z,23.56
2022-08-28T14:35:27.207Z,23.56
2022-08-28T14:35:39.749Z,23.56
2022-08-28T14:35:52.333Z,23.56
2022-08-28T14:36:04.846Z,23.58
2022-08-28T14:36:17.698Z,23.56
2022-08-28T14:36:30.395Z,23.58
2022-08-28T14:36:42.933Z,23.59
2022-08-28T14:36:55.470Z,23.59
2022-08-28T14:37:08.093Z,23.59
2022-08-28T14:37:20.620Z,23.59
2022-08-28T14:37:33.251Z,23.62
2022-08-28T14:37:45.777Z,23.62
2022-08-28T14:37:58.418Z,23.63
2022-08-28T14:38:10.988Z,23.59
2022-08-28T14:38:23.534Z,23.58
2022-08-28T14:38:36.068Z,23.56
2022-08-28T14:38:48.631Z,23.58
2022-08-28T14:39:05.869Z,23.56
2022-08-28T14:39:13.478Z,23.55
2022-08-28T14:39:25.993Z,23.55
2022-08-28T14:39:38.528Z,23.52
2022-08-28T14:39:50.319Z,23.51
2022-08-28T14:40:02.897Z,23.45
2022-08-28T14:40:15.445Z,23.45
2022-08-28T14:40:28.110Z,23.42
2022-08-28T14:40:40.751Z,23.40
2022-08-28T14:40:53.297Z,23.37
2022-08-28T14:41:07.324Z,23.36
2022-08-28T14:41:19.867Z,23.36
2022-08-28T14:41:32.397Z,23.36
2022-08-28T14:41:45.018Z,23.34
2022-08-28T14:41:57.501Z,23.36
2022-08-28T14:42:11.816Z,23.34
2022-08-28T14:42:22.743Z,23.34
2022-08-28T14:42:35.255Z,23.33
2022-08-28T14:42:47.796Z,23.34
2022-08-28T14:43:00.433Z,23.33
2022-08-28T14:43:13.108Z,23.29
2022-08-28T14:43:25.654Z,23.25
2022-08-28T14:43:38.195Z,23.21
2022-08-28T14:43:50.731Z,23.18
2022-08-28T14:44:03.269Z,23.17
2022-08-28T14:44:15.803Z,23.16